createdAt,value
2019-03-30T00:04:09.156Z,75.09
2019-03-30T00:06:57.956Z,74.30
2019-03-30T00:09:46.769Z,74.79
2019-03-30T00:12:37.355Z,74.68
2019-03-30T00:15:26.171Z,74.42
2019-03-30T00:18:14.968Z,73.98
2019-03-30T00:21:03.788Z,73.97
2019-03-30T00:24:11.633Z,74.23
2019-03-30T00:27:00.683Z,74.06
2019-03-30T00:29:49.503Z,73.84
2019-03-30T00:32:57.302Z,73.76
2019-03-30T00:35:46.117Z,74.02
2019-03-30T00:38:34.983Z,74.22
2019-03-30T00:41:23.798Z,74.15
2019-03-30T00:44:05.292Z,74.21
2019-03-30T00:46:54.082Z,74.92
2019-03-30T00:49:48.982Z,76.30
2019-03-30T00:52:33.419Z,76.32
2019-03-30T00:55:22.234Z,75.80
2019-03-30T00:58:11.030Z,75.41
2019-03-30T01:00:52.715Z,75.33
2019-03-30T01:03:41.512Z,75.53
2019-03-30T01:06:30.323Z,74.99
2019-03-30T01:09:19.121Z,74.99
2019-03-30T01:12:07.978Z,75.12
2019-03-30T01:14:57.038Z,75.44
2019-03-30T01:17:45.858Z,75.38
2019-03-30T01:20:34.659Z,75.29
2019-03-30T01:23:23.498Z,75.87
2019-03-30T01:26:12.388Z,75.51
2019-03-30T01:29:20.916Z,75.30
2019-03-30T01:32:09.748Z,75.10
2019-03-30T01:34:58.576Z,74.94
2019-03-30T01:37:47.523Z,74.92
2019-03-30T01:40:36.323Z,74.61
2019-03-30T01:43:16.065Z,74.65
2019-03-30T01:46:04.942Z,74.71
2019-03-30T01:48:53.776Z,74.46
2019-03-30T01:51:42.577Z,74.15
2019-03-30T01:54:31.391Z,74.68
2019-03-30T01:57:20.207Z,74.68
2019-03-30T02:00:30.369Z,75.93
2019-03-30T02:03:19.163Z,76.20
2019-03-30T02:06:07.983Z,75.86
2019-03-30T02:08:56.779Z,76.14
2019-03-30T02:11:45.598Z,76.61
2019-03-30T02:14:34.416Z,76.37
2019-03-30T02:17:23.214Z,75.84
2019-03-30T02:20:32.933Z,75.58
2019-03-30T02:23:21.738Z,74.97
2019-03-30T02:26:10.546Z,74.78
2019-03-30T02:28:59.355Z,74.99
2019-03-30T02:31:48.184Z,75.47
2019-03-30T02:34:36.969Z,75.03
2019-03-30T02:37:25.781Z,75.57
2019-03-30T02:40:14.578Z,75.18
2019-03-30T02:43:03.391Z,74.82
2019-03-30T02:45:45.053Z,74.53
2019-03-30T02:48:33.869Z,74.02
2019-03-30T02:51:22.675Z,74.09
2019-03-30T02:54:11.485Z,73.97
2019-03-30T02:57:00.279Z,74.30
2019-03-30T02:59:49.100Z,74.36
2019-03-30T03:02:31.145Z,74.62
2019-03-30T03:05:20.327Z,74.27
2019-03-30T03:08:09.159Z,74.19
2019-03-30T03:10:57.949Z,74.97
2019-03-30T03:13:46.760Z,74.42
2019-03-30T03:16:35.604Z,74.51
2019-03-30T03:19:24.378Z,74.73
2019-03-30T03:22:13.263Z,75.08
2019-03-30T03:25:02.065Z,74.81
2019-03-30T03:27:50.905Z,74.63
2019-03-30T03:30:39.714Z,75.12
2019-03-30T03:36:22.878Z,74.58
2019-03-30T03:39:11.705Z,74.31
2019-03-30T03:45:28.949Z,74.47
2019-03-30T03:48:17.772Z,74.21
2019-03-30T03:51:24.439Z,74.53
2019-03-30T03:53:57.439Z,75.35
2019-03-30T03:57:07.159Z,75.07
2019-03-30T04:00:16.884Z,75.21
2019-03-30T04:06:42.036Z,75.65
2019-03-30T04:09:51.745Z,76.08
2019-03-30T04:13:01.469Z,76.00
2019-03-30T04:18:47.891Z,77.44
2019-03-30T04:21:43.721Z,77.08
2019-03-30T04:24:25.666Z,76.77
2019-03-30T04:27:33.500Z,76.42
2019-03-30T04:30:22.298Z,75.83
2019-03-30T04:33:11.111Z,75.94
2019-03-30T04:36:00.025Z,75.70
2019-03-30T04:38:48.839Z,76.08
2019-03-30T04:41:37.646Z,76.80
2019-03-30T04:44:18.943Z,77.04
2019-03-30T04:47:07.737Z,77.12
2019-03-30T04:49:56.548Z,77.69
2019-03-30T04:52:45.340Z,77.23
2019-03-30T04:55:34.157Z,76.71
2019-03-30T04:58:22.952Z,76.63
2019-03-30T05:00:52.426Z,76.43
2019-03-30T05:03:41.225Z,76.31
2019-03-30T05:06:22.469Z,75.89
2019-03-30T05:09:11.260Z,75.82
2019-03-30T05:12:00.082Z,75.87
2019-03-30T05:14:48.888Z,75.52
2019-03-30T05:17:46.694Z,75.53
2019-03-30T05:20:28.226Z,76.06
2019-03-30T05:23:17.068Z,76.77
2019-03-30T05:29:13.604Z,76.21
2019-03-30T05:32:02.405Z,76.29
2019-03-30T05:34:51.220Z,76.49
2019-03-30T05:37:40.026Z,76.41
2019-03-30T05:40:28.834Z,75.97
2019-03-30T05:43:10.718Z,76.26
2019-03-30T05:46:19.119Z,76.02
2019-03-30T05:49:07.919Z,75.61
2019-03-30T05:51:56.731Z,75.64
2019-03-30T05:54:45.524Z,75.37
2019-03-30T05:57:34.350Z,75.11
2019-03-30T06:03:32.539Z,74.88
2019-03-30T06:06:21.331Z,75.28
2019-03-30T06:09:10.148Z,75.54
2019-03-30T06:11:58.948Z,75.23
2019-03-30T06:14:47.766Z,75.08
2019-03-30T06:17:36.560Z,75.15
2019-03-30T06:20:25.374Z,74.82
2019-03-30T06:23:14.199Z,74.38
2019-03-30T06:26:03.014Z,73.87
2019-03-30T06:28:51.814Z,73.98
2019-03-30T06:31:40.625Z,74.00
2019-03-30T06:34:29.428Z,73.80
2019-03-30T06:37:18.244Z,73.75
2019-03-30T06:40:07.044Z,73.70
2019-03-30T06:42:55.932Z,73.68
2019-03-30T06:45:37.278Z,73.50
2019-03-30T06:48:26.089Z,73.43
2019-03-30T06:51:14.886Z,73.36
2019-03-30T06:54:03.772Z,73.63
2019-03-30T06:56:52.567Z,73.51
2019-03-30T06:59:41.391Z,73.41
2019-03-30T07:02:30.195Z,73.26
2019-03-30T07:05:18.996Z,73.08
2019-03-30T07:08:28.702Z,72.88
2019-03-30T07:11:21.407Z,72.96
2019-03-30T07:14:08.474Z,72.54
2019-03-30T07:16:57.759Z,72.09
2019-03-30T07:20:07.495Z,71.96
2019-03-30T07:23:10.680Z,72.79
2019-03-30T07:25:47.003Z,72.42
2019-03-30T07:28:35.816Z,72.10
2019-03-30T07:31:24.611Z,71.50
2019-03-30T07:34:13.422Z,71.07
2019-03-30T07:37:02.228Z,70.95
2019-03-30T07:39:51.051Z,71.03
2019-03-30T07:42:39.870Z,70.64
2019-03-30T07:45:21.854Z,70.50
2019-03-30T07:48:10.674Z,70.08
2019-03-30T07:50:59.466Z,69.85
2019-03-30T07:53:48.281Z,69.58
2019-03-30T07:56:37.098Z,69.93
2019-03-30T07:59:25.903Z,70.52
2019-03-30T08:02:14.716Z,70.05
2019-03-30T08:08:24.891Z,69.51
2019-03-30T08:11:14.527Z,69.02
2019-03-30T08:14:04.551Z,68.80
2019-03-30T08:16:53.375Z,68.64
2019-03-30T08:19:42.171Z,68.27
2019-03-30T08:22:30.994Z,67.81
2019-03-30T08:25:19.859Z,67.14
2019-03-30T08:28:08.681Z,66.48
2019-03-30T08:30:57.493Z,66.26
2019-03-30T08:36:41.286Z,65.74
2019-03-30T08:39:49.134Z,65.42
2019-03-30T08:42:37.971Z,66.40
2019-03-30T08:45:19.889Z,64.69
2019-03-30T08:48:08.702Z,65.32
2019-03-30T08:50:57.517Z,64.43
2019-03-30T08:53:54.455Z,64.59
2019-03-30T08:56:36.870Z,64.24
2019-03-30T08:59:25.694Z,63.50
2019-03-30T09:05:22.269Z,62.70
2019-03-30T09:08:11.074Z,62.49
2019-03-30T09:11:00.948Z,62.10
2019-03-30T09:13:49.749Z,61.88
2019-03-30T09:16:38.571Z,62.05
2019-03-30T09:19:27.367Z,62.37
2019-03-30T09:22:16.195Z,60.90
2019-03-30T09:25:24.830Z,61.17
2019-03-30T09:28:13.657Z,60.24
2019-03-30T09:31:02.483Z,59.71
2019-03-30T09:33:51.294Z,60.05
2019-03-30T09:36:40.199Z,58.42
2019-03-30T09:39:28.998Z,57.65
2019-03-30T09:42:17.828Z,56.77
2019-03-30T09:45:27.563Z,56.52
2019-03-30T09:48:08.838Z,55.93
2019-03-30T09:50:57.637Z,55.64
2019-03-30T09:53:46.467Z,55.08
2019-03-30T09:56:35.290Z,55.32
2019-03-30T09:59:24.116Z,54.51
2019-03-30T10:02:12.921Z,54.33
2019-03-30T10:05:01.751Z,55.22
2019-03-30T10:07:50.554Z,54.04
2019-03-30T10:10:39.373Z,53.77
2019-03-30T10:13:28.178Z,52.55
2019-03-30T10:16:17.002Z,53.20
2019-03-30T10:19:05.805Z,52.77
2019-03-30T10:21:54.627Z,52.71
2019-03-30T10:24:43.437Z,51.64
2019-03-30T10:27:32.253Z,51.54
2019-03-30T10:30:21.065Z,50.75
2019-03-30T10:33:09.894Z,50.15
2019-03-30T10:35:58.715Z,50.89
2019-03-30T10:38:47.528Z,50.18
2019-03-30T10:41:36.329Z,49.67
2019-03-30T10:44:25.164Z,49.91
2019-03-30T10:47:07.131Z,49.71
2019-03-30T10:49:56.291Z,50.51
2019-03-30T10:52:45.099Z,49.38
2019-03-30T10:55:33.924Z,49.66
2019-03-30T10:58:22.736Z,49.42
2019-03-30T11:01:11.562Z,49.54
2019-03-30T11:04:00.365Z,49.49
2019-03-30T11:07:08.223Z,47.85
2019-03-30T11:13:04.936Z,47.91
2019-03-30T11:15:53.728Z,46.38
2019-03-30T11:18:42.553Z,47.02
2019-03-30T11:21:31.376Z,45.74
2019-03-30T11:24:20.177Z,44.83
2019-03-30T11:27:16.613Z,45.45
2019-03-30T11:30:26.311Z,44.40
2019-03-30T11:33:15.134Z,41.72
2019-03-30T11:36:03.945Z,40.95
2019-03-30T11:38:52.772Z,42.86
2019-03-30T11:41:41.591Z,41.95
2019-03-30T11:44:23.119Z,40.88
2019-03-30T11:47:11.933Z,40.85
2019-03-30T11:50:00.740Z,40.74
2019-03-30T11:52:49.546Z,40.97
2019-03-30T11:55:38.360Z,40.17
2019-03-30T11:58:27.487Z,40.48
2019-03-30T12:01:16.394Z,41.52
2019-03-30T12:04:05.197Z,41.69
2019-03-30T12:06:54.032Z,42.53
2019-03-30T12:09:35.807Z,41.83
2019-03-30T12:12:24.705Z,41.45
2019-03-30T12:15:13.768Z,40.85
2019-03-30T12:18:02.574Z,40.63
2019-03-30T12:20:51.393Z,40.59
2019-03-30T12:23:42.654Z,41.41
2019-03-30T12:26:30.737Z,41.96
2019-03-30T12:29:19.548Z,41.83
2019-03-30T12:32:08.377Z,42.08
2019-03-30T12:34:57.171Z,42.68
2019-03-30T12:37:46.055Z,40.31
2019-03-30T12:43:30.098Z,40.09
2019-03-30T12:46:18.954Z,39.23
2019-03-30T12:49:07.844Z,40.16
2019-03-30T12:51:56.705Z,40.04
2019-03-30T12:54:45.943Z,40.34
2019-03-30T12:57:34.776Z,40.12
2019-03-30T13:00:23.704Z,39.96
2019-03-30T13:03:12.572Z,38.62
2019-03-30T13:06:02.215Z,38.00
2019-03-30T13:08:51.017Z,38.81
2019-03-30T13:11:39.845Z,38.37
2019-03-30T13:14:28.652Z,39.19
2019-03-30T13:17:17.474Z,37.12
2019-03-30T13:20:26.421Z,36.33
2019-03-30T13:23:15.244Z,34.80
2019-03-30T13:26:04.374Z,34.50
2019-03-30T13:28:54.603Z,34.59
2019-03-30T13:31:43.416Z,34.16
2019-03-30T13:34:32.245Z,32.97
2019-03-30T13:37:21.330Z,32.92
2019-03-30T13:40:10.339Z,31.60
2019-03-30T13:42:51.833Z,31.10
2019-03-30T13:45:40.659Z,31.38
2019-03-30T13:48:29.451Z,31.53
2019-03-30T13:51:18.274Z,32.21
2019-03-30T13:54:07.088Z,31.82
2019-03-30T13:56:55.889Z,30.62
2019-03-30T13:59:44.712Z,31.21
2019-03-30T14:02:33.514Z,31.05
2019-03-30T14:05:22.336Z,31.60
2019-03-30T14:08:11.212Z,30.61
2019-03-30T14:11:00.073Z,29.67
2019-03-30T14:13:48.897Z,30.42
2019-03-30T14:16:37.727Z,29.90
2019-03-30T14:19:26.528Z,29.55
2019-03-30T14:25:09.375Z,29.66
2019-03-30T14:27:58.198Z,30.14
2019-03-30T14:30:47.011Z,31.40
2019-03-30T14:33:54.869Z,32.54
2019-03-30T14:36:43.687Z,33.57
2019-03-30T14:39:32.810Z,33.70
2019-03-30T14:42:21.613Z,30.94
2019-03-30T14:45:31.353Z,30.84
2019-03-30T14:48:20.144Z,31.32
2019-03-30T14:51:08.964Z,31.04
2019-03-30T14:53:57.771Z,29.83
2019-03-30T14:56:46.592Z,31.00
2019-03-30T14:59:35.390Z,32.74
2019-03-30T15:02:24.583Z,33.41
2019-03-30T15:05:13.477Z,33.45
2019-03-30T15:08:02.281Z,32.21
2019-03-30T15:10:51.119Z,31.64
2019-03-30T15:13:39.941Z,32.29
2019-03-30T15:16:28.751Z,32.21
2019-03-30T15:19:17.571Z,31.71
2019-03-30T15:22:06.390Z,31.56
2019-03-30T15:24:55.212Z,31.47
2019-03-30T15:27:44.031Z,32.37
2019-03-30T15:30:32.857Z,31.28
2019-03-30T15:33:21.662Z,31.72
2019-03-30T15:36:10.485Z,29.87
2019-03-30T15:38:59.321Z,29.73
2019-03-30T15:41:40.704Z,31.49
2019-03-30T15:44:29.533Z,30.84
2019-03-30T15:47:18.349Z,30.51
2019-03-30T15:53:22.352Z,30.33
2019-03-30T15:56:11.147Z,31.51
2019-03-30T15:58:59.971Z,31.58
2019-03-30T16:01:48.774Z,32.94
2019-03-30T16:04:37.620Z,32.09
2019-03-30T16:07:26.399Z,32.37
2019-03-30T16:10:15.465Z,32.61
2019-03-30T16:13:04.710Z,32.96
2019-03-30T16:15:53.974Z,33.06
2019-03-30T16:18:42.767Z,33.41
2019-03-30T16:21:31.596Z,32.90
2019-03-30T16:24:20.400Z,31.79
2019-03-30T16:27:29.476Z,32.46
2019-03-30T16:30:19.305Z,31.92
2019-03-30T16:33:08.121Z,31.13
2019-03-30T16:35:56.923Z,31.97
2019-03-30T16:38:45.744Z,33.21
2019-03-30T16:41:34.543Z,34.48
2019-03-30T16:44:16.495Z,34.90
2019-03-30T16:47:05.384Z,35.43
2019-03-30T16:49:54.203Z,35.79
2019-03-30T16:52:43.031Z,35.72
2019-03-30T16:55:31.838Z,35.43
2019-03-30T16:58:20.672Z,34.80
2019-03-30T17:01:09.470Z,34.27
2019-03-30T17:03:58.285Z,33.37
2019-03-30T17:06:27.749Z,32.62
2019-03-30T17:09:16.575Z,32.47
2019-03-30T17:12:05.448Z,32.26
2019-03-30T17:14:54.269Z,31.90
2019-03-30T17:20:37.012Z,32.57
2019-03-30T17:23:25.846Z,33.44
2019-03-30T17:32:17.288Z,38.63
2019-03-30T17:35:27.029Z,40.25
2019-03-30T17:38:15.839Z,41.43
2019-03-30T17:41:04.721Z,42.53
2019-03-30T17:43:46.615Z,42.23
2019-03-30T17:49:30.132Z,43.01
2019-03-30T17:52:18.941Z,43.34
2019-03-30T18:01:31.155Z,43.91
2019-03-30T18:04:19.980Z,43.91
2019-03-30T18:07:08.797Z,44.04
2019-03-30T18:09:57.623Z,44.69
2019-03-30T18:12:46.423Z,44.96
2019-03-30T18:15:35.264Z,45.06
2019-03-30T18:18:24.074Z,45.21
2019-03-30T18:21:12.900Z,45.38
2019-03-30T18:24:01.696Z,45.83
2019-03-30T18:26:50.528Z,45.97
2019-03-30T18:29:31.724Z,45.85
2019-03-30T18:32:21.026Z,46.16
2019-03-30T18:35:09.964Z,46.48
2019-03-30T18:37:59.325Z,46.74
2019-03-30T18:43:55.966Z,47.79
2019-03-30T18:46:44.790Z,48.37
2019-03-30T18:49:33.595Z,48.49
2019-03-30T18:52:22.417Z,48.88
2019-03-30T18:55:32.148Z,48.77
2019-03-30T18:58:20.957Z,48.61
2019-03-30T19:01:09.776Z,49.75
2019-03-30T19:03:58.591Z,49.86
2019-03-30T19:06:28.125Z,49.95
2019-03-30T19:09:17.013Z,50.62
2019-03-30T19:12:05.838Z,49.94
2019-03-30T19:14:54.654Z,50.08
2019-03-30T19:17:44.028Z,50.13
2019-03-30T19:20:32.859Z,50.12
2019-03-30T19:23:21.654Z,49.83
2019-03-30T19:25:51.177Z,49.60
2019-03-30T19:28:32.774Z,50.26
2019-03-30T19:31:21.591Z,50.60
2019-03-30T19:34:10.441Z,50.61
2019-03-30T19:36:59.297Z,50.82
2019-03-30T19:39:48.129Z,51.05
2019-03-30T19:42:37.083Z,51.85
2019-03-30T19:45:25.942Z,51.64
2019-03-30T19:48:14.811Z,52.04
2019-03-30T19:51:03.764Z,52.17
2019-03-30T19:53:52.734Z,52.16
2019-03-30T19:59:29.923Z,52.61
2019-03-30T20:02:18.727Z,52.40
2019-03-30T20:05:07.722Z,52.44
2019-03-30T20:08:11.177Z,52.92
2019-03-30T20:10:47.067Z,53.07
2019-03-30T20:13:35.867Z,53.37
2019-03-30T20:16:24.690Z,52.88
2019-03-30T20:19:13.508Z,53.09
2019-03-30T20:22:02.335Z,53.47
2019-03-30T20:24:51.495Z,53.64
2019-03-30T20:27:40.315Z,53.75
2019-03-30T20:30:24.398Z,53.54
2019-03-30T20:33:12.612Z,53.83
2019-03-30T20:36:01.402Z,54.50
2019-03-30T20:38:50.223Z,54.73
2019-03-30T20:41:39.047Z,55.97
2019-03-30T20:44:20.920Z,57.12
2019-03-30T20:47:09.748Z,56.99
2019-03-30T20:49:58.576Z,56.87
2019-03-30T20:53:06.546Z,56.85
2019-03-30T20:55:55.382Z,57.06
2019-03-30T20:58:44.390Z,57.62
2019-03-30T21:01:33.520Z,58.56
2019-03-30T21:04:22.323Z,59.00
2019-03-30T21:07:11.157Z,58.80
2019-03-30T21:09:59.970Z,58.85
2019-03-30T21:12:48.788Z,58.96
2019-03-30T21:15:37.615Z,58.79
2019-03-30T21:18:26.482Z,59.63
2019-03-30T21:21:15.547Z,59.43
2019-03-30T21:24:04.367Z,59.61
2019-03-30T21:26:53.159Z,59.75
2019-03-30T21:29:54.009Z,59.39
2019-03-30T21:32:25.776Z,59.70
2019-03-30T21:35:14.680Z,60.90
2019-03-30T21:38:03.477Z,61.59
2019-03-30T21:41:11.326Z,61.74
2019-03-30T21:44:00.145Z,61.77
2019-03-30T21:46:41.822Z,62.83
2019-03-30T21:49:31.084Z,62.95
2019-03-30T21:52:21.182Z,63.64
2019-03-30T21:58:38.546Z,62.94
2019-03-30T22:01:27.336Z,62.96
2019-03-30T22:04:16.150Z,62.75
2019-03-30T22:07:05.020Z,63.03
2019-03-30T22:09:54.008Z,63.89
2019-03-30T22:12:42.819Z,64.54
2019-03-30T22:15:31.912Z,64.64
2019-03-30T22:21:28.472Z,64.24
2019-03-30T22:24:17.267Z,64.24
2019-03-30T22:27:06.091Z,64.08
2019-03-30T22:29:54.944Z,64.01
2019-03-30T22:32:43.794Z,64.14
2019-03-30T22:38:47.977Z,65.71
2019-03-30T22:41:36.785Z,65.33
2019-03-30T22:44:25.599Z,65.18
2019-03-30T22:47:07.010Z,65.49
2019-03-30T22:49:55.802Z,65.76
2019-03-30T22:52:44.627Z,66.39
2019-03-30T22:55:33.426Z,66.17
2019-03-30T22:58:22.244Z,67.25
2019-03-30T23:04:06.438Z,66.64
2019-03-30T23:06:55.260Z,66.74
2019-03-30T23:09:44.144Z,68.83
2019-03-30T23:12:32.948Z,69.67
2019-03-30T23:15:21.756Z,69.36
2019-03-30T23:18:10.577Z,68.34
2019-03-30T23:20:59.408Z,68.02
2019-03-30T23:23:48.225Z,67.61
2019-03-30T23:26:37.022Z,67.39
2019-03-30T23:29:25.860Z,67.51
2019-03-30T23:32:14.638Z,68.06
2019-03-30T23:37:59.258Z,67.93
2019-03-30T23:40:48.054Z,68.12
2019-03-30T23:43:36.892Z,68.08
2019-03-30T23:46:25.676Z,69.08
2019-03-30T23:49:07.216Z,68.78
2019-03-30T23:51:56.015Z,68.54
2019-03-30T23:54:44.831Z,69.40
